Summerland, California
Current Conditions -  °F | °C
As of 2:53 PM on Wednesday 22 Oct 2014 (Local Time) from KSBA Reporting Station
Clear Clear  
Wind Chill: 76°   Ceiling: Unl
Heat Index: 76°   Visibility: 10mi
Dew Point: 53°   Wind: 10mph
Humidity: 45%   Direction: 270°W
Pressure: 29.9"   Gusts: NA
Location:  34.42°N, 119.6°W
Report Text: KSBA 222153Z 27009KT 10SM CLR 24/12 A2990 RMK AO2 SLP123 T02440117
Loading
Personal Weather Stations






























Interactive Weather Map
Tropical Storm Tracking
New forecast layout! Learn more

10-Day Weather Forecast

Advertisements
Track Severe Weather on mobile